Terminal Aerodrome Forecast
Issued by NWS North Platte, NE

Home | Current Version | Previous Version | Graphics & Text | Print | Product List | Glossary On
Versions: 1 2 3 4 5 6 7 8 9 10 11 12 13 14 15 16 17
000
FTUS43 KLBF 281120
TAFVTN
TAF
KVTN 281120Z 2812/2912 32010G15KT 5SM BR OVC005
      TEMPO 2812/2814 3SM BR
     FM281600 35008KT P6SM SCT015
     FM290000 VRB04KT P6SM SKC
      AMD NOT SKED=

USA.gov is the U.S. government's official web portal to all federal, state and local government web resources and services.